| time (UTC) | temp C | wind direction | speed KPH | gust KPH | rain 1hr cm | rain 24hr cm | rain mn cm | humidity % | barometer mb |
| 20260509011705 | 14 | 188 | 4.8 | 11.3 | 0.00 | 0.13 | 0.13 | 95 | 1018.0 |
| 20260509003705 | 13 | 212 | 4.8 | 11.3 | 0.03 | 0.13 | 0.13 | 99 | 1018.0 |
| 20260509003205 | 13 | 222 | 4.8 | 12.9 | 0.03 | 0.13 | 0.13 | 99 | 1017.9 |
| 20260509002706 | 13 | 233 | 3.2 | 11.3 | 0.03 | 0.13 | 0.13 | 99 | 1017.9 |
| 20260509002205 | 12 | 196 | 0.0 | 9.7 | 0.03 | 0.13 | 0.13 | 99 | 1017.8 |
| 20260509000705 | 13 | 207 | 4.8 | 11.3 | 0.03 | 0.13 | 0.13 | 99 | 1018.1 |
| 20260508234706 | 13 | 235 | 6.4 | 16.1 | 0.00 | 0.10 | 0.10 | 99 | 1018.3 |
| 20260508234205 | 13 | 224 | 6.4 | 12.9 | 0.00 | 0.10 | 0.10 | 99 | 1018.1 |
| 20260508233705 | 13 | 210 | 1.6 | 9.7 | 0.00 | 0.10 | 0.10 | 99 | 1018.0 |
| 20260508233206 | 13 | 235 | 6.4 | 11.3 | 0.00 | 0.10 | 0.10 | 99 | 1018.0 |
| 20260508232705 | 13 | 226 | 3.2 | 9.7 | 0.00 | 0.10 | 0.10 | 99 | 1018.0 |
| 20260508231206 | 12 | 239 | 3.2 | 11.3 | 0.00 | 0.10 | 0.10 | 99 | 1017.9 |
| 20260508230706 | 12 | 227 | 3.2 | 9.7 | 0.00 | 0.10 | 0.10 | 99 | 1018.0 |
| 20260508230206 | 12 | 235 | 4.8 | 11.3 | 0.00 | 0.10 | 0.10 | 99 | 1017.8 |
| 20260508225705 | 12 | 240 | 4.8 | 8.0 | 0.03 | 0.10 | 0.10 | 99 | 1017.8 |
| 20260508224705 | 12 | 236 | 4.8 | 8.0 | 0.03 | 0.10 | 0.10 | 99 | 1017.7 |
| 20260508224205 | 12 | 255 | 4.8 | 11.3 | 0.03 | 0.10 | 0.10 | 99 | 1017.9 |
| 20260508223706 | 12 | 234 | 4.8 | 9.7 | 0.03 | 0.10 | 0.10 | 99 | 1017.8 |
| 20260508222705 | 12 | 237 | 3.2 | 8.0 | 0.03 | 0.10 | 0.10 | 99 | 1017.7 |
| 20260508222206 | 12 | 255 | 4.8 | 8.0 | 0.03 | 0.10 | 0.10 | 99 | 1017.5 |
| 20260508221705 | 12 | 252 | 4.8 | 8.0 | 0.05 | 0.10 | 0.10 | 99 | 1017.6 |
| 20260508221205 | 12 | 246 | 4.8 | 8.0 | 0.08 | 0.10 | 0.10 | 99 | 1017.4 |
| 20260508220705 | 12 | 253 | 4.8 | 8.0 | 0.08 | 0.10 | 0.10 | 99 | 1017.4 |
| 20260508215705 | 12 | 241 | 3.2 | 8.0 | 0.05 | 0.08 | 0.08 | 99 | 1017.6 |
| 20260508215205 | 12 | 241 | 3.2 | 4.8 | 0.05 | 0.08 | 0.08 | 99 | 1017.5 |
| 20260508214705 | 12 | 236 | 3.2 | 4.8 | 0.05 | 0.08 | 0.08 | 99 | 1017.3 |
| 20260508214205 | 12 | 239 | 3.2 | 8.0 | 0.05 | 0.08 | 0.08 | 99 | 1017.4 |
| 20260508213705 | 12 | 245 | 3.2 | 4.8 | 0.05 | 0.08 | 0.08 | 99 | 1017.4 |
| 20260508213204 | 12 | 242 | 3.2 | 8.0 | 0.05 | 0.08 | 0.08 | 99 | 1017.5 |
| 20260508212705 | 12 | 250 | 4.8 | 8.0 | 0.05 | 0.08 | 0.08 | 99 | 1017.4 |
| 20260508211705 | 12 | 246 | 1.6 | 8.0 | 0.05 | 0.05 | 0.05 | 99 | 1017.2 |
| 20260508211205 | 12 | 231 | 0.0 | 0.0 | 0.03 | 0.03 | 0.03 | 99 | 1017.3 |
| 20260508210705 | 12 | 228 | 0.0 | 0.0 | 0.03 | 0.03 | 0.03 | 99 | 1017.2 |
| 20260508210205 | 12 | 227 | 0.0 | 0.0 | 0.03 | 0.03 | 0.03 | 99 | 1017.2 |
| 20260508205705 | 12 | 229 | 0.0 | 0.0 | 0.03 | 0.03 | 0.03 | 99 | 1017.1 |
| 20260508204705 | 12 | 228 | 0.0 | 0.0 | 0.03 | 0.03 | 0.03 | 99 | 1017.0 |
| 20260508204205 | 12 | 226 | 0.0 | 3.2 | 0.03 | 0.03 | 0.03 | 99 | 1016.9 |
| 20260508203706 | 12 | 229 | 1.6 | 4.8 | 0.03 | 0.03 | 0.03 | 99 | 1016.9 |
| 20260508203204 | 12 | 230 | 3.2 | 8.0 | 0.03 | 0.03 | 0.03 | 99 | 1017.0 |
| 20260508202705 | 12 | 239 | 4.8 | 9.7 | 0.03 | 0.03 | 0.03 | 99 | 1016.8 |
| 20260508202205 | 12 | 232 | 3.2 | 8.0 | 0.00 | 0.00 | 0.00 | 99 | 1016.8 |
| 20260508201704 | 12 | 240 | 3.2 | 11.3 | 0.00 | 0.00 | 0.00 | 99 | 1016.7 |
| 20260508201205 | 12 | 222 | 1.6 | 4.8 | 0.00 | 0.00 | 0.00 | 99 | 1016.7 |
| 20260508200705 | 12 | 220 | 0.0 | 4.8 | 0.00 | 0.00 | 0.00 | 99 | 1016.8 |
| 20260508200205 | 12 | 224 | 1.6 | 3.2 | 0.00 | 0.00 | 0.00 | 99 | 1016.7 |
| 20260508195705 | 12 | 224 | 1.6 | 4.8 | 0.00 | 0.00 | 0.00 | 99 | 1016.7 |
| 20260508195205 | 12 | 230 | 3.2 | 4.8 | 0.00 | 0.00 | 0.00 | 99 | 1016.5 |
| 20260508194705 | 12 | 231 | 1.6 | 4.8 | 0.00 | 0.00 | 0.00 | 99 | 1016.6 |
| 20260508194204 | 12 | 232 | 1.6 | 3.2 | 0.00 | 0.00 | 0.00 | 99 | 1016.7 |
| 20260508193705 | 12 | 238 | 3.2 | 4.8 | 0.00 | 0.00 | 0.00 | 99 | 1016.5 |
| 20260508193205 | 12 | 234 | 3.2 | 3.2 | 0.00 | 0.00 | 0.00 | 99 | 1016.6 |
| 20260508192705 | 12 | 223 | 0.0 | 0.0 | 0.00 | 0.00 | 0.00 | 99 | 1016.5 |
| 20260508192205 | 12 | 222 | 1.6 | 3.2 | 0.00 | 0.00 | 0.00 | 99 | 1016.5 |
| 20260508191705 | 12 | 227 | 1.6 | 3.2 | 0.00 | 0.00 | 0.00 | 99 | 1016.4 |
| 20260508191205 | 12 | 227 | 0.0 | 3.2 | 0.00 | 0.00 | 0.00 | 98 | 1016.4 |
| 20260508185706 | 12 | 228 | 3.2 | 4.8 | 0.00 | 0.00 | 0.00 | 98 | 1016.3 |
| 20260508185205 | 12 | 228 | 3.2 | 8.0 | 0.00 | 0.00 | 0.00 | 98 | 1016.5 |
| 20260508184205 | 12 | 230 | 3.2 | 8.0 | 0.00 | 0.00 | 0.00 | 98 | 1016.3 |
| 20260508183205 | 12 | 232 | 3.2 | 8.0 | 0.00 | 0.00 | 0.00 | 98 | 1016.3 |
| 20260508182705 | 12 | 233 | 1.6 | 4.8 | 0.00 | 0.00 | 0.00 | 98 | 1016.4 |
| 20260508182206 | 12 | 228 | 3.2 | 8.0 | 0.00 | 0.00 | 0.00 | 98 | 1016.4 |
| 20260508181205 | 12 | 230 | 3.2 | 4.8 | 0.00 | 0.00 | 0.00 | 97 | 1016.3 |
| 20260508180705 | 12 | 231 | 3.2 | 8.0 | 0.00 | 0.00 | 0.00 | 97 | 1016.5 |
| 20260508180205 | 12 | 224 | 3.2 | 4.8 | 0.00 | 0.00 | 0.00 | 97 | 1016.4 |
| 20260508175705 | 12 | 228 | 1.6 | 4.8 | 0.00 | 0.00 | 0.00 | 97 | 1016.4 |
| 20260508175205 | 12 | 224 | 3.2 | 4.8 | 0.00 | 0.00 | 0.00 | 97 | 1016.6 |
| 20260508174705 | 12 | 222 | 1.6 | 3.2 | 0.00 | 0.00 | 0.00 | 97 | 1016.5 |
| 20260508174204 | 12 | 222 | 1.6 | 4.8 | 0.00 | 0.00 | 0.00 | 96 | 1016.5 |
| 20260508173705 | 12 | 223 | 1.6 | 4.8 | 0.00 | 0.00 | 0.00 | 96 | 1016.6 |
| 20260508173205 | 12 | 224 | 3.2 | 4.8 | 0.00 | 0.00 | 0.00 | 96 | 1016.6 |
| 20260508172705 | 12 | 223 | 1.6 | 3.2 | 0.00 | 0.00 | 0.00 | 95 | 1016.6 |
| 20260508172205 | 12 | 225 | 1.6 | 4.8 | 0.00 | 0.00 | 0.00 | 95 | 1016.7 |
| 20260508171705 | 12 | 232 | 3.2 | 4.8 | 0.00 | 0.00 | 0.00 | 94 | 1016.8 |
| 20260508171204 | 12 | 230 | 3.2 | 4.8 | 0.00 | 0.00 | 0.00 | 94 | 1016.6 |
| 20260508170705 | 12 | 211 | 0.0 | 3.2 | 0.00 | 0.00 | 0.00 | 93 | 1016.8 |
| 20260508170205 | 12 | 216 | 0.0 | 3.2 | 0.00 | 0.00 | 0.00 | 93 | 1016.6 |
| 20260508165705 | 12 | 211 | 1.6 | 3.2 | 0.00 | 0.00 | 0.00 | 93 | 1016.7 |
| 20260508165205 | 12 | 205 | 1.6 | 3.2 | 0.00 | 0.00 | 0.00 | 92 | 1016.7 |
| 20260508164707 | 12 | 205 | 0.0 | 4.8 | 0.00 | 0.00 | 0.00 | 92 | 1016.8 |
| 20260508164204 | 12 | 198 | 1.6 | 8.0 | 0.00 | 0.00 | 0.00 | 92 | 1016.8 |
| 20260508163705 | 12 | 213 | 3.2 | 4.8 | 0.00 | 0.00 | 0.00 | 91 | 1016.7 |
| 20260508163205 | 12 | 217 | 3.2 | 9.7 | 0.00 | 0.00 | 0.00 | 91 | 1016.7 |
| 20260508162205 | 12 | 210 | 1.6 | 8.0 | 0.00 | 0.00 | 0.00 | 91 | 1016.8 |
| 20260508161705 | 12 | 219 | 1.6 | 9.7 | 0.00 | 0.00 | 0.00 | 91 | 1016.8 |
| 20260508161205 | 12 | 231 | 3.2 | 11.3 | 0.00 | 0.00 | 0.00 | 90 | 1016.7 |
| 20260508160704 | 12 | 218 | 1.6 | 4.8 | 0.00 | 0.00 | 0.00 | 90 | 1016.9 |
| 20260508160206 | 12 | 231 | 1.6 | 8.0 | 0.00 | 0.00 | 0.00 | 90 | 1016.8 |
| 20260508155705 | 12 | 228 | 3.2 | 8.0 | 0.00 | 0.00 | 0.00 | 90 | 1016.8 |
| 20260508155204 | 12 | 229 | 3.2 | 4.8 | 0.00 | 0.00 | 0.00 | 89 | 1016.8 |
| 20260508154204 | 12 | 222 | 3.2 | 4.8 | 0.00 | 0.00 | 0.00 | 89 | 1016.8 |
| 20260508153705 | 12 | 202 | 0.0 | 1.6 | 0.00 | 0.00 | 0.00 | 89 | 1016.7 |
| 20260508153205 | 13 | 195 | 1.6 | 4.8 | 0.00 | 0.00 | 0.00 | 88 | 1016.6 |
| 20260508152705 | 13 | 202 | 1.6 | 8.0 | 0.00 | 0.00 | 0.00 | 88 | 1016.8 |
| 20260508152205 | 13 | 205 | 3.2 | 9.7 | 0.00 | 0.00 | 0.00 | 88 | 1016.8 |
| 20260508151705 | 13 | 217 | 1.6 | 3.2 | 0.00 | 0.00 | 0.00 | 88 | 1016.7 |
| 20260508151205 | 13 | 193 | 3.2 | 9.7 | 0.00 | 0.00 | 0.00 | 88 | 1016.9 |
| 20260508150705 | 13 | 216 | 1.6 | 4.8 | 0.00 | 0.00 | 0.00 | 88 | 1016.7 |
| 20260508150205 | 13 | 205 | 1.6 | 11.3 | 0.00 | 0.00 | 0.00 | 88 | 1016.7 |
| 20260508145705 | 13 | 215 | 3.2 | 4.8 | 0.00 | 0.00 | 0.00 | 89 | 1016.8 |
| 20260508145204 | 13 | 207 | 1.6 | 8.0 | 0.00 | 0.00 | 0.00 | 89 | 1016.5 |
| 20260508144705 | 13 | 211 | 1.6 | 4.8 | 0.00 | 0.00 | 0.00 | 89 | 1016.7 |
| 20260508144204 | 13 | 219 | 1.6 | 8.0 | 0.00 | 0.00 | 0.00 | 89 | 1016.8 |
| 20260508143205 | 13 | 220 | 1.6 | 4.8 | 0.00 | 0.00 | 0.00 | 89 | 1016.9 |
| 20260508142706 | 13 | 216 | 0.0 | 8.0 | 0.00 | 0.00 | 0.00 | 89 | 1016.7 |
| 20260508142206 | 13 | 206 | 3.2 | 8.0 | 0.00 | 0.00 | 0.00 | 89 | 1016.9 |
| 20260508141704 | 13 | 217 | 1.6 | 3.2 | 0.00 | 0.00 | 0.00 | 89 | 1017.0 |
| 20260508141206 | 13 | 208 | 0.0 | 4.8 | 0.00 | 0.00 | 0.00 | 89 | 1016.8 |
| 20260508140704 | 13 | 216 | 1.6 | 3.2 | 0.00 | 0.00 | 0.00 | 89 | 1016.9 |
| 20260508140205 | 13 | 207 | 1.6 | 9.7 | 0.00 | 0.00 | 0.00 | 89 | 1016.9 |
| 20260508135706 | 13 | 211 | 3.2 | 9.7 | 0.00 | 0.00 | 0.00 | 89 | 1017.1 |
| 20260508135205 | 13 | 214 | 1.6 | 3.2 | 0.00 | 0.00 | 0.00 | 89 | 1017.1 |
| 20260508134705 | 13 | 212 | 3.2 | 4.8 | 0.00 | 0.00 | 0.00 | 88 | 1017.1 |
| 20260508134205 | 13 | 217 | 3.2 | 8.0 | 0.00 | 0.00 | 0.00 | 88 | 1017.1 |
| 20260508133705 | 13 | 227 | 3.2 | 4.8 | 0.00 | 0.00 | 0.00 | 88 | 1017.0 |
| 20260508132705 | 13 | 233 | 3.2 | 8.0 | 0.00 | 0.00 | 0.00 | 87 | 1017.2 |
| 20260508132204 | 13 | 217 | 3.2 | 9.7 | 0.00 | 0.00 | 0.00 | 87 | 1017.2 |
| 20260508131704 | 13 | 217 | 3.2 | 8.0 | 0.00 | 0.00 | 0.00 | 87 | 1017.2 |
| 20260508131204 | 13 | 211 | 1.6 | 9.7 | 0.00 | 0.00 | 0.00 | 87 | 1017.1 |
| 20260508130705 | 13 | 210 | 3.2 | 9.7 | 0.00 | 0.00 | 0.00 | 87 | 1017.0 |
| 20260508130205 | 13 | 205 | 4.8 | 8.0 | 0.00 | 0.00 | 0.00 | 87 | 1017.2 |
| 20260508125205 | 13 | 195 | 1.6 | 9.7 | 0.00 | 0.00 | 0.00 | 87 | 1017.3 |
| 20260508124705 | 13 | 228 | 3.2 | 8.0 | 0.00 | 0.00 | 0.00 | 87 | 1017.4 |
| 20260508123705 | 13 | 213 | 1.6 | 8.0 | 0.00 | 0.00 | 0.00 | 87 | 1017.4 |
| 20260508123205 | 13 | 209 | 3.2 | 8.0 | 0.00 | 0.00 | 0.00 | 87 | 1017.4 |
| 20260508122706 | 13 | 218 | 4.8 | 9.7 | 0.00 | 0.00 | 0.00 | 87 | 1017.5 |
| 20260508121705 | 13 | 228 | 4.8 | 8.0 | 0.00 | 0.00 | 0.00 | 87 | 1017.5 |
| 20260508121206 | 13 | 229 | 1.6 | 4.8 | 0.00 | 0.00 | 0.00 | 88 | 1017.6 |
| 20260508120205 | 13 | 214 | 1.6 | 4.8 | 0.00 | 0.00 | 0.00 | 88 | 1017.5 |
| 20260508114204 | 13 | 194 | 1.6 | 4.8 | 0.00 | 0.00 | 0.00 | 88 | 1017.4 |
| 20260508113705 | 13 | 225 | 3.2 | 12.9 | 0.00 | 0.00 | 0.00 | 88 | 1017.4 |
| 20260508113205 | 13 | 194 | 4.8 | 9.7 | 0.00 | 0.00 | 0.00 | 87 | 1017.4 |
| 20260508112704 | 13 | 195 | 3.2 | 9.7 | 0.00 | 0.00 | 0.00 | 87 | 1017.4 |
| 20260508111705 | 13 | 196 | 3.2 | 16.1 | 0.00 | 0.00 | 0.00 | 87 | 1017.3 |
| 20260508111205 | 13 | 190 | 6.4 | 14.5 | 0.00 | 0.00 | 0.00 | 87 | 1017.1 |
| 20260508110705 | 13 | 193 | 4.8 | 14.5 | 0.00 | 0.00 | 0.00 | 87 | 1017.1 |
| 20260508110205 | 13 | 193 | 4.8 | 12.9 | 0.00 | 0.00 | 0.00 | 87 | 1017.2 |
| 20260508105704 | 13 | 204 | 3.2 | 14.5 | 0.00 | 0.00 | 0.00 | 87 | 1017.2 |
| 20260508104706 | 13 | 216 | 4.8 | 14.5 | 0.00 | 0.00 | 0.00 | 86 | 1017.2 |
| 20260508104206 | 13 | 189 | 3.2 | 11.3 | 0.00 | 0.00 | 0.00 | 86 | 1017.1 |
| 20260508103705 | 13 | 191 | 3.2 | 11.3 | 0.00 | 0.00 | 0.00 | 85 | 1017.0 |
| 20260508103205 | 13 | 184 | 4.8 | 16.1 | 0.00 | 0.00 | 0.00 | 84 | 1017.1 |
| 20260508102206 | 13 | 199 | 4.8 | 14.5 | 0.00 | 0.00 | 0.00 | 83 | 1017.1 |
| 20260508101704 | 13 | 177 | 3.2 | 12.9 | 0.00 | 0.00 | 0.00 | 82 | 1017.0 |
| 20260508101205 | 13 | 187 | 4.8 | 11.3 | 0.00 | 0.00 | 0.00 | 81 | 1016.8 |
| 20260508100705 | 14 | 190 | 4.8 | 12.9 | 0.00 | 0.00 | 0.00 | 80 | 1016.8 |
| 20260508100205 | 14 | 195 | 3.2 | 12.9 | 0.00 | 0.00 | 0.00 | 80 | 1016.8 |
| 20260508095205 | 14 | 197 | 6.4 | 14.5 | 0.00 | 0.00 | 0.00 | 78 | 1016.6 |
| 20260508094705 | 14 | 200 | 4.8 | 14.5 | 0.00 | 0.00 | 0.00 | 78 | 1016.5 |
| 20260508094205 | 14 | 198 | 4.8 | 14.5 | 0.00 | 0.00 | 0.00 | 78 | 1016.7 |
| 20260508093705 | 14 | 226 | 3.2 | 12.9 | 0.00 | 0.00 | 0.00 | 77 | 1016.6 |
| 20260508093204 | 15 | 210 | 4.8 | 14.5 | 0.00 | 0.00 | 0.00 | 77 | 1016.5 |
| 20260508092704 | 15 | 196 | 4.8 | 16.1 | 0.00 | 0.00 | 0.00 | 76 | 1016.4 |
| 20260508092205 | 15 | 189 | 8.0 | 19.3 | 0.00 | 0.00 | 0.00 | 76 | 1016.5 |
| 20260508091704 | 15 | 177 | 4.8 | 11.3 | 0.00 | 0.00 | 0.00 | 76 | 1016.2 |
| 20260508091205 | 15 | 217 | 4.8 | 12.9 | 0.00 | 0.00 | 0.00 | 76 | 1016.4 |
| 20260508090704 | 15 | 181 | 4.8 | 19.3 | 0.00 | 0.00 | 0.00 | 76 | 1016.2 |
| 20260508090205 | 15 | 201 | 3.2 | 11.3 | 0.00 | 0.00 | 0.00 | 76 | 1016.3 |
| 20260508085704 | 15 | 185 | 3.2 | 9.7 | 0.00 | 0.00 | 0.00 | 76 | 1016.3 |
| 20260508085205 | 15 | 176 | 4.8 | 14.5 | 0.00 | 0.00 | 0.00 | 75 | 1016.2 |
| 20260508084704 | 15 | 202 | 3.2 | 12.9 | 0.00 | 0.00 | 0.00 | 75 | 1016.2 |
| 20260508084205 | 15 | 185 | 3.2 | 9.7 | 0.00 | 0.00 | 0.00 | 75 | 1016.0 |
| 20260508083704 | 15 | 203 | 4.8 | 11.3 | 0.00 | 0.00 | 0.00 | 74 | 1016.1 |
| 20260508083206 | 15 | 201 | 4.8 | 12.9 | 0.00 | 0.00 | 0.00 | 74 | 1016.0 |
| 20260508082204 | 16 | 168 | 8.0 | 14.5 | 0.00 | 0.00 | 0.00 | 73 | 1016.1 |